Terminal Aerodrome Forecast
Issued by NWS

Home | Current Version | Previous Version | Text Only | Print | Product List | Glossary On
Versions: 1 2 3 4 5 6 7 8 9 10 11 12 13 14 15
000
FTUS45 KRIW 210529
TAFRKS
TAF
KRKS 210529Z 2106/2206 02011KT 4SM -SN SCT015 OVC025
      TEMPO 2106/2110 2SM -SN BKN015
     FM211000 36010G20KT 3SM -SN BLSN SCT016 OVC026
     FM211300 36010G20KT P6SM SCT026 OVC040
     FM212100 33012G20KT P6SM SCT040 BKN080
     FM220200 28012G22KT P6SM SCT080=

USA.gov is the U.S. government's official web portal to all federal, state and local government web resources and services.